Walnut Hill, Illinois
Current Conditions -  °F | °C
As of 9:55 PM on Wednesday 22 Oct 2014 (Local Time) from KENL Reporting Station
Clear Clear  
Wind Chill: 41°   Ceiling: Unl
Heat Index: 41°   Visibility: 10mi
Dew Point: 38°   Wind: 0mph
Humidity: 89%   Direction: NA
Pressure: 30.24"   Gusts: NA
Location:  38.48°N, 89.04°W
Report Text: KENL 230255Z AUTO 00000KT 10SM CLR 05/04 A3024 RMK AO2 T00510035
Loading
Personal Weather Stations






























Interactive Weather Map
Tropical Storm Tracking
New forecast layout! Learn more

10-Day Weather Forecast

Advertisements
Track Severe Weather on mobile